createdAt,value
2016-03-22T08:52:26.232Z,65
2016-03-22T08:53:25.593Z,60
2016-03-22T08:54:24.691Z,55
2016-03-22T08:55:33.365Z,50
2016-03-22T08:56:26.663Z,50
2016-03-22T08:57:24.746Z,50
2016-03-22T08:58:24.294Z,45
2016-03-22T08:59:24.516Z,45
2016-03-22T09:00:24.488Z,45
2016-03-22T09:01:38.163Z,45
2016-03-22T09:02:24.305Z,45
2016-03-22T09:03:27.479Z,55
2016-03-22T09:04:24.248Z,60
2016-03-22T09:05:25.720Z,60
2016-03-22T09:06:24.066Z,55
2016-03-22T09:07:24.097Z,60
2016-03-22T09:08:25.256Z,65
2016-03-22T09:09:54.025Z,65
2016-03-22T09:10:39.417Z,60
2016-03-22T09:11:28.420Z,60
2016-03-22T09:12:24.033Z,60
2016-03-22T09:13:32.004Z,65
2016-03-22T09:15:24.181Z,60
2016-03-22T09:16:26.636Z,55
2016-03-22T09:17:23.796Z,60
2016-03-22T09:18:24.220Z,60
2016-03-22T09:19:24.145Z,60
2016-03-22T09:20:25.054Z,55
2016-03-22T09:21:25.681Z,60
2016-03-22T09:22:24.027Z,65
2016-03-22T09:23:23.874Z,75
2016-03-22T09:24:24.658Z,85
2016-03-22T09:25:23.660Z,90
2016-03-22T09:26:24.274Z,85
2016-03-22T09:27:23.995Z,80
2016-03-22T09:28:26.012Z,80
2016-03-22T09:29:25.859Z,75
2016-03-22T09:30:24.799Z,70
2016-03-22T09:31:24.177Z,60
2016-03-22T09:32:23.711Z,55
2016-03-22T09:33:24.339Z,60
2016-03-22T09:34:37.389Z,55
2016-03-22T09:35:23.766Z,55
2016-03-22T09:36:26.660Z,55
2016-03-22T09:37:23.631Z,55
2016-03-22T09:38:51.399Z,65
2016-03-22T09:39:23.855Z,75
2016-03-22T09:40:27.405Z,85
2016-03-22T09:41:23.798Z,85
2016-03-22T09:42:37.660Z,90
2016-03-22T09:43:23.663Z,95
2016-03-22T09:44:23.555Z,95
2016-03-22T09:45:24.200Z,85
2016-03-22T09:46:24.171Z,85
2016-03-22T09:47:23.689Z,85
2016-03-22T09:48:23.363Z,90
2016-03-22T09:49:23.147Z,85
2016-03-22T09:50:23.385Z,75
2016-03-22T09:51:23.730Z,65
2016-03-22T09:52:23.530Z,75
2016-03-22T09:53:23.096Z,85
2016-03-22T09:54:22.973Z,95
2016-03-22T09:55:23.071Z,100
2016-03-22T09:56:22.916Z,105
2016-03-22T09:57:23.310Z,105
2016-03-22T09:58:23.281Z,100
2016-03-22T09:59:22.846Z,95
2016-03-22T10:00:23.490Z,85
2016-03-22T10:01:54.257Z,65
2016-03-22T10:02:23.620Z,60
2016-03-22T10:03:50.732Z,40
2016-03-22T10:04:35.703Z,40
2016-03-22T10:05:22.707Z,40
2016-03-22T10:06:22.756Z,40
2016-03-22T10:07:22.648Z,30
2016-03-22T10:08:22.918Z,25
2016-03-22T10:09:23.920Z,25
2016-03-22T10:10:22.767Z,25
2016-03-22T10:11:22.675Z,35
2016-03-22T10:12:23.272Z,40
2016-03-22T10:13:22.431Z,45
2016-03-22T10:14:22.497Z,45
2016-03-22T10:15:22.795Z,40
2016-03-22T10:16:22.330Z,35
2016-03-22T10:17:22.863Z,35
2016-03-22T10:18:22.491Z,35
2016-03-22T10:19:22.431Z,45
2016-03-22T10:20:22.965Z,65
2016-03-22T10:21:22.655Z,90
2016-03-22T10:22:22.877Z,105
2016-03-22T10:23:22.738Z,110
2016-03-22T10:24:21.398Z,120
2016-03-22T10:25:22.229Z,120
2016-03-22T10:26:22.138Z,120
2016-03-22T10:27:22.718Z,120
2016-03-22T10:28:23.487Z,120
2016-03-22T10:29:23.037Z,125
2016-03-22T10:30:23.007Z,120
2016-03-22T10:31:22.276Z,115
2016-03-22T10:32:22.388Z,115
2016-03-22T10:33:22.422Z,120
2016-03-22T10:34:22.737Z,120
2016-03-22T10:35:24.193Z,115
2016-03-22T10:36:22.743Z,110
2016-03-22T10:37:21.870Z,105
2016-03-22T10:38:22.342Z,100
2016-03-22T10:40:23.503Z,110
2016-03-22T10:41:21.052Z,115
2016-03-22T10:42:22.117Z,120
2016-03-22T10:43:22.745Z,125
2016-03-22T10:44:22.342Z,120
2016-03-22T10:45:22.798Z,115
2016-03-22T10:46:37.175Z,115
2016-03-22T10:47:22.428Z,110
2016-03-22T10:48:22.478Z,100
2016-03-22T10:49:22.012Z,95
2016-03-22T10:50:22.358Z,90
2016-03-22T10:51:21.126Z,90
2016-03-22T10:52:23.848Z,90
2016-03-22T10:53:22.491Z,90
2016-03-22T10:54:23.557Z,90
2016-03-22T10:55:21.482Z,90
2016-03-22T10:56:22.530Z,85
2016-03-22T10:57:35.705Z,70
2016-03-22T10:58:21.410Z,60
2016-03-22T11:00:22.026Z,55
2016-03-22T11:01:22.059Z,45
2016-03-22T11:02:21.563Z,50
2016-03-22T11:03:22.626Z,50
2016-03-22T11:04:22.779Z,45
2016-03-22T11:05:22.072Z,45
2016-03-22T11:06:22.208Z,50
2016-03-22T11:07:26.456Z,60
2016-03-22T11:08:21.516Z,65
2016-03-22T11:09:21.688Z,75
2016-03-22T11:10:21.345Z,85
2016-03-22T11:11:21.251Z,95
2016-03-22T11:12:23.721Z,110
2016-03-22T11:13:22.283Z,120
2016-03-22T11:14:21.318Z,115
2016-03-22T11:15:21.476Z,105
2016-03-22T11:16:21.211Z,100
2016-03-22T11:17:22.698Z,100
2016-03-22T11:18:21.341Z,110
2016-03-22T11:19:19.967Z,120
2016-03-22T11:20:21.751Z,125
2016-03-22T11:21:21.582Z,125
2016-03-22T11:22:20.771Z,115
2016-03-22T11:23:21.368Z,115
2016-03-22T11:24:21.090Z,125
2016-03-22T11:25:21.857Z,125
2016-03-22T11:26:20.798Z,125
2016-03-22T11:27:21.160Z,120
2016-03-22T11:28:20.943Z,105
2016-03-22T11:29:23.009Z,100
2016-03-22T11:30:20.948Z,95
2016-03-22T11:31:20.843Z,95
2016-03-22T11:32:21.673Z,105
2016-03-22T11:34:20.600Z,125
2016-03-22T11:35:20.525Z,115
2016-03-22T11:36:24.465Z,105
2016-03-22T11:37:20.593Z,90
2016-03-22T11:38:23.720Z,80
2016-03-22T11:39:24.519Z,80
2016-03-22T11:40:35.430Z,85
2016-03-22T11:41:20.478Z,80
2016-03-22T11:42:20.544Z,80
2016-03-22T11:43:20.531Z,85
2016-03-22T11:44:20.471Z,85
2016-03-22T11:45:21.005Z,90
2016-03-22T11:46:20.633Z,85
2016-03-22T11:48:34.201Z,80
2016-03-22T11:49:23.624Z,80
2016-03-22T11:50:22.675Z,80
2016-03-22T11:51:21.896Z,90
2016-03-22T11:53:47.792Z,85
2016-03-22T11:54:22.295Z,85
2016-03-22T11:55:21.954Z,80
2016-03-22T11:56:20.973Z,80
2016-03-22T11:57:21.209Z,80
2016-03-22T11:58:21.196Z,80
2016-03-22T13:00:18.282Z,115
2016-03-22T13:01:18.709Z,105
2016-03-22T13:02:18.665Z,95
2016-03-22T13:03:18.134Z,100
2016-03-22T13:04:31.123Z,110
2016-03-22T13:05:17.780Z,110
2016-03-22T13:06:17.689Z,105
2016-03-22T13:07:17.775Z,90
2016-03-22T13:09:16.859Z,75
2016-03-22T13:10:16.877Z,70
2016-03-22T13:11:16.942Z,65
2016-03-22T13:12:17.850Z,60
2016-03-22T13:13:17.213Z,60
2016-03-22T13:14:16.559Z,60
2016-03-22T13:15:15.999Z,55
2016-03-22T13:16:17.377Z,50
2016-03-22T13:17:16.708Z,45
2016-03-22T13:18:31.276Z,45
2016-03-22T13:19:16.744Z,45
2016-03-22T13:20:17.279Z,45
2016-03-22T13:21:16.921Z,45
2016-03-22T13:22:16.768Z,45
2016-03-22T13:23:16.490Z,50
2016-03-22T13:24:16.648Z,45
2016-03-22T13:25:16.338Z,45
2016-03-22T13:26:16.762Z,45
2016-03-22T13:27:16.860Z,45
2016-03-22T13:28:16.831Z,45
2016-03-22T13:29:16.803Z,40
2016-03-22T13:30:16.602Z,35
2016-03-22T13:31:16.401Z,30
2016-03-22T13:32:30.173Z,25
2016-03-22T13:33:16.157Z,25
2016-03-22T13:34:16.237Z,30
2016-03-22T13:35:16.303Z,30
2016-03-22T13:36:16.914Z,30
2016-03-22T13:37:15.200Z,30
2016-03-22T13:38:15.967Z,30
2016-03-22T13:40:31.288Z,30
2016-03-22T13:41:15.928Z,30
2016-03-22T13:42:16.806Z,35
2016-03-22T13:43:16.075Z,35
2016-03-22T13:44:16.234Z,40
2016-03-22T13:45:15.799Z,40
2016-03-22T13:46:15.644Z,40
2016-03-22T13:47:16.054Z,40
2016-03-22T13:48:16.822Z,50
2016-03-22T13:49:16.325Z,50
2016-03-22T13:50:16.375Z,50
2016-03-22T13:51:17.471Z,45
2016-03-22T13:52:30.164Z,45
2016-03-22T13:53:15.102Z,50
2016-03-22T13:54:29.607Z,55
2016-03-22T13:55:14.966Z,55
2016-03-22T13:56:30.128Z,50
2016-03-22T13:57:16.221Z,45
2016-03-22T13:58:15.568Z,45
2016-03-22T13:59:15.633Z,45
2016-03-22T14:00:16.433Z,45
2016-03-22T14:01:16.248Z,45
2016-03-22T14:02:14.954Z,45
2016-03-22T14:03:14.722Z,45
2016-03-22T14:04:15.647Z,50
2016-03-22T14:05:16.540Z,50
2016-03-22T14:06:16.120Z,55
2016-03-22T14:07:15.623Z,55
2016-03-22T14:08:15.642Z,50
2016-03-22T14:09:15.800Z,50
2016-03-22T14:10:16.257Z,45
2016-03-22T14:11:15.072Z,45
2016-03-22T14:12:16.528Z,45
2016-03-22T14:13:15.264Z,40
2016-03-22T14:14:15.189Z,40
2016-03-22T14:15:15.364Z,40
2016-03-22T14:16:15.444Z,35
2016-03-22T14:17:15.322Z,30
2016-03-22T14:18:15.794Z,30
2016-03-22T14:19:15.094Z,30
2016-03-22T14:20:14.955Z,30
2016-03-22T14:21:14.958Z,30
2016-03-22T14:22:14.929Z,30
2016-03-22T14:23:18.417Z,25
2016-03-22T14:24:15.388Z,25
2016-03-22T14:25:14.999Z,25
2016-03-22T14:26:15.081Z,20
2016-03-22T14:27:14.615Z,20
2016-03-22T14:28:14.899Z,20
2016-03-22T14:29:16.010Z,20
2016-03-22T14:30:16.107Z,20
2016-03-22T14:31:15.047Z,25
2016-03-22T14:32:15.393Z,25
2016-03-22T14:33:31.539Z,25
2016-03-22T14:34:15.195Z,25
2016-03-22T14:36:31.954Z,20
2016-03-22T14:38:15.066Z,25
2016-03-22T14:39:16.881Z,30
2016-03-22T14:40:15.025Z,35
2016-03-22T14:41:15.917Z,40
2016-03-22T14:42:17.078Z,35
2016-03-22T14:43:20.550Z,35
2016-03-22T14:44:14.566Z,40
2016-03-22T14:45:14.539Z,45
2016-03-22T14:46:28.653Z,50
2016-03-22T14:47:14.825Z,50
2016-03-22T14:48:15.530Z,50
2016-03-22T14:49:14.814Z,50
2016-03-22T14:50:14.864Z,50
2016-03-22T14:51:15.163Z,50
2016-03-22T14:53:14.529Z,35
2016-03-22T14:54:14.671Z,30
2016-03-22T14:55:13.877Z,30
2016-03-22T14:56:14.958Z,30
2016-03-22T14:57:14.789Z,30
2016-03-22T14:58:14.338Z,35
2016-03-22T14:59:15.590Z,35
2016-03-22T15:00:15.032Z,35
2016-03-22T15:01:14.378Z,30
2016-03-22T15:02:28.212Z,30
2016-03-22T15:04:15.167Z,25
2016-03-22T15:05:14.545Z,25
2016-03-22T15:06:45.723Z,20
2016-03-22T15:07:28.022Z,20
2016-03-22T15:09:15.196Z,20
2016-03-22T15:10:14.168Z,20
2016-03-22T15:11:27.642Z,20
2016-03-22T15:12:14.345Z,20
2016-03-22T15:13:12.926Z,15
2016-03-22T15:14:14.506Z,15
2016-03-22T15:15:13.978Z,15
2016-03-22T15:16:15.387Z,15
2016-03-22T15:17:16.578Z,10
2016-03-22T15:18:15.361Z,15
2016-03-22T15:19:26.819Z,15
2016-03-22T15:20:14.616Z,15
2016-03-22T15:21:14.025Z,20
2016-03-22T15:22:13.513Z,20
2016-03-22T15:23:27.893Z,25
2016-03-22T15:24:13.940Z,25
2016-03-22T15:25:13.693Z,20
2016-03-22T15:26:13.602Z,20
2016-03-22T15:27:14.073Z,20
2016-03-22T15:28:13.388Z,20
2016-03-22T15:29:13.750Z,20
2016-03-22T15:30:12.971Z,20
2016-03-22T15:31:12.677Z,15
2016-03-22T15:32:13.929Z,20
2016-03-22T15:33:13.496Z,20
2016-03-22T15:34:13.529Z,30
2016-03-22T15:35:16.704Z,30
2016-03-22T15:36:13.425Z,35
2016-03-22T15:37:13.506Z,35
2016-03-22T15:38:13.790Z,35
2016-03-22T15:39:13.198Z,40
2016-03-22T15:40:13.420Z,40
2016-03-22T15:41:13.954Z,45
2016-03-22T15:42:13.331Z,45
2016-03-22T15:43:12.475Z,45
2016-03-22T15:44:12.994Z,40
2016-03-22T15:45:16.497Z,40
2016-03-22T15:46:14.280Z,40
2016-03-22T15:47:30.441Z,45
2016-03-22T15:48:13.472Z,45
2016-03-22T15:49:13.382Z,45
2016-03-22T15:50:13.619Z,45
2016-03-22T15:51:13.543Z,45
2016-03-22T15:52:14.594Z,45
2016-03-22T15:53:27.052Z,45
2016-03-22T15:54:13.052Z,45
2016-03-22T15:55:13.024Z,45
2016-03-22T15:56:12.776Z,40
2016-03-22T15:57:11.326Z,35
2016-03-22T15:58:12.938Z,35
2016-03-22T15:59:13.159Z,30
2016-03-22T16:00:12.755Z,30
2016-03-22T16:01:13.212Z,30
2016-03-22T16:02:12.932Z,25
2016-03-22T16:03:13.060Z,25
2016-03-22T16:04:12.500Z,25
2016-03-22T16:05:12.800Z,20
2016-03-22T16:06:13.225Z,15
2016-03-22T16:07:12.493Z,15
2016-03-22T16:08:12.558Z,15
2016-03-22T16:09:12.576Z,15
2016-03-22T16:10:12.563Z,15
2016-03-22T16:11:12.988Z,10
2016-03-22T16:12:12.600Z,10
2016-03-22T16:13:26.074Z,10
2016-03-22T16:14:12.277Z,10
2016-03-22T16:15:12.703Z,10
2016-03-22T16:16:12.830Z,10
2016-03-22T16:17:13.395Z,5
2016-03-22T16:18:12.663Z,5
2016-03-22T16:19:12.572Z,5
2016-03-22T16:20:12.950Z,5
2016-03-22T16:21:12.186Z,5
2016-03-22T16:22:12.455Z,0
2016-03-22T16:23:13.005Z,0
2016-03-22T16:24:12.054Z,0
2016-03-22T16:25:12.198Z,0
2016-03-22T16:26:12.466Z,5
2016-03-22T16:27:12.218Z,5
2016-03-22T16:28:12.034Z,5
2016-03-22T16:29:12.412Z,0
2016-03-22T16:30:12.226Z,0
2016-03-22T16:31:12.010Z,0
2016-03-22T16:32:12.059Z,0
2016-03-22T16:33:11.954Z,0
2016-03-22T16:34:11.971Z,0
2016-03-22T16:35:12.146Z,0
2016-03-22T16:36:11.774Z,0
2016-03-22T16:37:11.698Z,0
2016-03-22T16:38:11.623Z,0
2016-03-22T16:39:11.517Z,0
2016-03-22T16:40:11.801Z,5
2016-03-22T16:41:12.194Z,5
2016-03-22T16:42:11.477Z,5
2016-03-22T16:43:11.543Z,5
2016-03-22T16:44:11.920Z,5
2016-03-22T16:45:11.580Z,5
2016-03-22T16:46:12.004Z,5
2016-03-22T16:47:12.256Z,5
2016-03-22T16:48:11.697Z,5
2016-03-22T16:49:11.855Z,5
2016-03-22T16:50:11.890Z,5
2016-03-22T16:51:11.361Z,5
2016-03-22T16:52:11.301Z,5
2016-03-22T16:53:11.976Z,0
2016-03-22T16:54:11.369Z,0
2016-03-22T16:55:11.372Z,0
2016-03-22T16:56:11.828Z,0
2016-03-22T16:57:12.050Z,0
2016-03-22T16:58:11.443Z,0
2016-03-22T16:59:11.538Z,0
2016-03-22T17:00:26.310Z,5
2016-03-22T17:01:29.015Z,5
2016-03-22T17:02:12.796Z,5
2016-03-22T17:03:11.753Z,5
2016-03-22T17:04:11.943Z,5
2016-03-22T17:05:11.695Z,5
2016-03-22T17:06:11.073Z,5
2016-03-22T17:07:10.826Z,5
2016-03-22T17:08:11.142Z,5
2016-03-22T17:09:11.315Z,5
2016-03-22T17:10:10.647Z,5
2016-03-22T17:11:11.509Z,0
2016-03-22T17:12:10.245Z,0
2016-03-22T17:13:11.061Z,0
2016-03-22T17:14:10.845Z,0
2016-03-22T17:15:10.754Z,0
2016-03-22T17:16:10.131Z,0
2016-03-22T17:17:11.103Z,0
2016-03-22T17:18:10.794Z,0
2016-03-22T17:19:11.061Z,0
2016-03-22T17:20:10.939Z,0
2016-03-22T17:22:10.913Z,0
2016-03-22T17:23:11.416Z,0
2016-03-22T17:24:11.247Z,0
2016-03-22T17:25:10.938Z,0
2016-03-22T17:26:10.721Z,0
2016-03-22T17:27:10.755Z,0
2016-03-22T17:28:13.524Z,0
2016-03-22T17:29:10.854Z,0
2016-03-22T17:30:10.482Z,0
2016-03-22T17:31:10.891Z,0
2016-03-22T17:32:10.331Z,0
2016-03-22T17:33:10.396Z,0
2016-03-22T17:34:10.523Z,0
2016-03-22T17:35:10.510Z,0
2016-03-22T17:36:10.342Z,0
2016-03-22T17:37:09.625Z,0
2016-03-22T17:38:10.440Z,0
2016-03-22T17:39:10.381Z,0
2016-03-22T17:40:10.414Z,0
2016-03-22T17:41:09.684Z,0
2016-03-22T17:42:10.264Z,0
2016-03-22T17:43:10.250Z,0
2016-03-22T17:44:11.472Z,0
2016-03-22T17:45:10.553Z,0
2016-03-22T17:46:10.181Z,0
2016-03-22T17:47:10.589Z,0
2016-03-22T17:48:10.250Z,0
2016-03-22T17:49:10.048Z,0
2016-03-22T17:50:10.519Z,0
2016-03-22T17:51:10.319Z,0
2016-03-22T17:52:10.291Z,0
2016-03-22T17:53:24.108Z,0
2016-03-22T17:54:09.921Z,0
2016-03-22T17:55:09.346Z,0
2016-03-22T17:56:10.130Z,0
2016-03-22T17:57:10.663Z,0
2016-03-22T17:58:13.386Z,0
2016-03-22T17:59:10.232Z,0
2016-03-22T18:00:10.219Z,0
2016-03-22T18:01:10.534Z,0
2016-03-22T18:02:10.287Z,0
2016-03-22T18:03:10.399Z,0
2016-03-22T18:04:08.838Z,0
2016-03-22T18:05:10.154Z,0
2016-03-22T18:06:09.610Z,0
2016-03-22T18:07:09.440Z,0
2016-03-22T18:08:09.724Z,0
2016-03-22T18:09:09.493Z,0
2016-03-22T18:10:09.558Z,0
2016-03-22T18:11:09.920Z,0
2016-03-22T18:12:09.939Z,0
2016-03-22T18:13:09.285Z,0
2016-03-22T18:14:09.365Z,0
2016-03-22T18:15:09.336Z,0
2016-03-22T18:16:09.653Z,0
2016-03-22T18:17:09.592Z,0
2016-03-22T18:18:09.267Z,0
2016-03-22T18:19:09.317Z,0
2016-03-22T18:20:09.631Z,0
2016-03-22T18:21:09.244Z,0
2016-03-22T18:22:09.668Z,0
2016-03-22T18:23:09.672Z,0
2016-03-22T18:24:09.408Z,0
2016-03-22T18:25:09.379Z,0
2016-03-22T18:27:09.713Z,0
2016-03-22T18:28:09.325Z,0
2016-03-22T18:29:09.406Z,0
2016-03-22T18:30:09.299Z,0
2016-03-22T18:31:22.755Z,0
2016-03-22T18:32:10.085Z,0
2016-03-22T18:33:09.261Z,0
2016-03-22T18:34:11.919Z,0
2016-03-22T18:35:09.016Z,0
2016-03-22T18:36:08.784Z,0
2016-03-22T18:37:09.193Z,0
2016-03-22T18:38:08.743Z,0
2016-03-22T18:39:09.682Z,0
2016-03-22T18:40:08.732Z,0
2016-03-22T18:41:09.767Z,0
2016-03-22T18:42:08.878Z,0
2016-03-22T18:43:08.756Z,0
2016-03-22T18:44:08.961Z,0
2016-03-22T18:45:09.948Z,0
2016-03-22T18:46:09.326Z,0
2016-03-22T18:47:08.908Z,0
2016-03-22T18:48:08.504Z,0
2016-03-22T18:49:10.709Z,0
2016-03-22T18:50:08.009Z,0
2016-03-22T18:51:08.590Z,0
2016-03-22T18:52:08.671Z,0
2016-03-22T18:53:08.642Z,0
2016-03-22T18:54:07.755Z,0
2016-03-22T18:55:08.491Z,0
2016-03-22T18:56:08.775Z,0
2016-03-22T18:57:10.230Z,0
2016-03-22T18:58:08.749Z,0
2016-03-22T18:59:08.768Z,0
2016-03-22T19:00:08.411Z,0
2016-03-22T19:01:10.524Z,0
2016-03-22T19:02:08.604Z,0
2016-03-22T19:03:08.841Z,0
2016-03-22T19:04:08.374Z,0
2016-03-22T19:05:08.332Z,0
2016-03-22T19:06:09.662Z,0
2016-03-22T19:07:07.695Z,0
2016-03-22T19:08:09.324Z,0
2016-03-22T19:09:08.420Z,0
2016-03-22T19:10:08.891Z,0
2016-03-22T19:11:09.018Z,0
2016-03-22T19:12:08.490Z,0
2016-03-22T19:13:08.165Z,0
2016-03-22T19:14:08.090Z,0
2016-03-22T19:15:09.576Z,0
2016-03-22T19:16:09.782Z,0
2016-03-22T19:17:22.534Z,0
2016-03-22T19:18:08.366Z,0
2016-03-22T19:19:08.665Z,0
2016-03-22T19:20:07.902Z,0
2016-03-22T19:21:07.812Z,0
2016-03-22T19:22:09.361Z,0
2016-03-22T19:23:09.394Z,0
2016-03-22T19:24:09.085Z,0
2016-03-22T19:25:08.260Z,0
2016-03-22T19:26:08.153Z,0
2016-03-22T19:27:08.516Z,0
2016-03-22T19:28:08.127Z,0
2016-03-22T19:29:09.302Z,0
2016-03-22T19:30:09.726Z,0
2016-03-22T19:31:09.307Z,0
2016-03-22T19:32:07.560Z,0
2016-03-22T19:33:09.969Z,0
2016-03-22T19:34:06.674Z,0
2016-03-22T19:35:07.802Z,0
2016-03-22T19:36:07.680Z,0
2016-03-22T19:37:08.073Z,0
2016-03-22T19:38:08.607Z,0
2016-03-22T19:39:07.312Z,0
2016-03-22T19:40:07.332Z,0
2016-03-22T19:41:06.818Z,0
2016-03-22T19:42:08.446Z,0
2016-03-22T19:43:07.293Z,0
2016-03-22T19:44:07.201Z,0
2016-03-22T19:45:10.392Z,0
2016-03-22T19:46:07.457Z,0
2016-03-22T19:47:07.412Z,0
2016-03-22T19:48:07.868Z,0
2016-03-22T19:49:20.886Z,0
2016-03-22T19:50:07.108Z,0
2016-03-22T19:51:07.830Z,0
2016-03-22T19:52:06.988Z,0
2016-03-22T19:53:11.117Z,0
2016-03-22T19:54:20.744Z,0
2016-03-22T19:55:07.356Z,0
2016-03-22T19:56:07.343Z,0
2016-03-22T19:57:07.439Z,0
2016-03-22T19:58:21.395Z,0
2016-03-22T19:59:07.866Z,0
2016-03-22T20:00:07.604Z,0
2016-03-22T20:01:06.997Z,0
2016-03-22T20:02:07.984Z,0
2016-03-22T20:03:07.002Z,0
2016-03-22T20:04:09.083Z,0
2016-03-22T20:06:06.854Z,0
2016-03-22T20:07:06.888Z,0
2016-03-22T20:08:06.985Z,0
2016-03-22T20:09:06.706Z,0
2016-03-22T20:10:07.296Z,0
2016-03-22T20:11:06.722Z,0
2016-03-22T20:12:06.755Z,0
2016-03-22T20:14:06.712Z,0
2016-03-22T20:15:06.437Z,0
2016-03-22T20:16:07.059Z,0
2016-03-22T20:17:20.227Z,0
2016-03-22T20:18:06.958Z,0
2016-03-22T20:19:06.862Z,0
2016-03-22T20:20:06.610Z,0
2016-03-22T20:21:06.282Z,0
2016-03-22T20:22:06.735Z,0
2016-03-22T20:23:19.908Z,0
2016-03-22T20:24:06.377Z,0
2016-03-22T20:25:06.707Z,0
2016-03-22T20:26:06.428Z,0
2016-03-22T20:27:07.757Z,0
2016-03-22T20:28:06.384Z,0
2016-03-22T20:29:06.323Z,0
2016-03-22T20:30:06.341Z,0
2016-03-22T20:31:05.952Z,0
2016-03-22T20:32:06.610Z,0
2016-03-22T20:33:06.347Z,0
2016-03-22T20:34:20.194Z,0
2016-03-22T20:35:05.430Z,0
2016-03-22T20:36:05.964Z,0
2016-03-22T20:37:05.639Z,0
2016-03-22T20:38:05.173Z,0
2016-03-22T20:39:06.050Z,0
2016-03-22T20:40:06.960Z,0
2016-03-22T20:41:05.994Z,0
2016-03-22T20:42:07.808Z,0
2016-03-22T20:43:06.624Z,0
2016-03-22T20:44:05.846Z,0
2016-03-22T20:45:05.036Z,0
2016-03-22T20:46:06.257Z,0
2016-03-22T20:47:06.072Z,0
2016-03-22T20:48:06.357Z,0
2016-03-22T20:49:05.484Z,0
2016-03-22T20:50:06.080Z,0
2016-03-22T20:51:04.910Z,0
2016-03-22T20:52:05.711Z,0
2016-03-22T20:53:05.323Z,0
2016-03-22T20:54:05.669Z,0
2016-03-22T20:55:05.390Z,0
2016-03-22T20:56:05.409Z,0
2016-03-22T20:57:05.473Z,0
2016-03-22T20:58:05.837Z,0
2016-03-22T20:59:04.386Z,0
2016-03-22T21:00:06.326Z,0
2016-03-22T21:01:05.437Z,0
2016-03-22T21:02:05.519Z,0
2016-03-22T21:03:05.193Z,0
2016-03-22T21:04:05.383Z,0
2016-03-22T21:05:05.198Z,0
2016-03-22T21:06:05.200Z,0
2016-03-22T21:07:05.095Z,0
2016-03-22T21:08:05.050Z,0
2016-03-22T21:09:05.381Z,0
2016-03-22T21:10:05.384Z,0
2016-03-22T21:11:18.668Z,0
2016-03-22T21:12:05.139Z,0
2016-03-22T21:13:04.719Z,0
2016-03-22T21:14:04.911Z,0
2016-03-22T21:15:04.819Z,0
2016-03-22T21:16:05.072Z,0
2016-03-22T21:17:04.746Z,0
2016-03-22T21:18:05.468Z,0
2016-03-22T21:19:04.815Z,0
2016-03-22T21:20:04.895Z,0
2016-03-22T21:21:04.539Z,0
2016-03-22T21:22:04.854Z,0
2016-03-22T21:23:05.246Z,0
2016-03-22T21:24:04.781Z,0
2016-03-22T21:25:04.643Z,0
2016-03-22T21:26:04.052Z,0
2016-03-22T21:27:04.977Z,0
2016-03-22T21:28:04.870Z,0
2016-03-22T21:29:04.654Z,0
2016-03-22T21:30:18.281Z,0
2016-03-22T21:31:04.488Z,0
2016-03-22T21:32:04.521Z,0
2016-03-22T21:33:04.290Z,0
2016-03-22T21:34:05.636Z,0
2016-03-22T21:35:04.436Z,0
2016-03-22T21:36:04.345Z,0
2016-03-22T21:37:05.534Z,0
2016-03-22T21:38:04.333Z,0
2016-03-22T21:39:04.180Z,0
2016-03-22T21:40:04.558Z,0
2016-03-22T21:41:05.514Z,0
2016-03-22T21:42:04.142Z,0
2016-03-22T21:43:17.895Z,0
2016-03-22T21:44:04.085Z,0
2016-03-22T21:45:04.165Z,0
2016-03-22T21:46:04.340Z,0
2016-03-22T21:47:03.952Z,0
2016-03-22T21:48:03.986Z,0
2016-03-22T21:49:03.941Z,0
2016-03-22T21:50:03.960Z,0
2016-03-22T21:51:04.104Z,0
2016-03-22T21:52:04.199Z,0
2016-03-22T21:53:04.094Z,0
2016-03-22T21:54:03.862Z,0
2016-03-22T21:55:03.099Z,0
2016-03-22T21:56:04.039Z,0
2016-03-22T21:57:03.792Z,0
2016-03-22T21:58:04.013Z,0
2016-03-22T21:59:03.672Z,0
2016-03-22T22:00:03.175Z,0
2016-03-22T22:01:04.270Z,0
2016-03-22T22:02:03.634Z,0
2016-03-22T22:03:03.636Z,0
2016-03-22T22:04:03.873Z,0
2016-03-22T22:05:03.610Z,0
2016-03-22T22:06:03.550Z,0
2016-03-22T22:07:03.850Z,0
2016-03-22T22:08:03.509Z,0
2016-03-22T22:09:03.512Z,0
2016-03-22T22:10:03.686Z,0
2016-03-22T22:11:03.626Z,0
2016-03-22T22:12:03.535Z,0
2016-03-22T22:13:03.569Z,0
2016-03-22T22:14:03.430Z,0
2016-03-22T22:15:03.716Z,0
2016-03-22T22:16:03.218Z,0
2016-03-22T22:17:03.267Z,0
2016-03-22T22:18:03.473Z,0
2016-03-22T22:19:03.397Z,0
2016-03-22T22:20:03.166Z,0
2016-03-22T22:21:03.559Z,0
2016-03-22T22:22:03.749Z,0
2016-03-22T22:23:03.032Z,0
2016-03-22T22:24:03.177Z,0
2016-03-22T22:25:03.117Z,0
2016-03-22T22:26:03.026Z,0
2016-03-22T22:27:03.091Z,0
2016-03-22T22:28:03.250Z,0
2016-03-22T22:29:03.049Z,0
2016-03-22T22:30:02.926Z,0
2016-03-22T22:31:03.009Z,0
2016-03-22T22:32:02.870Z,0
2016-03-22T22:33:02.809Z,0
2016-03-22T22:34:03.359Z,0
2016-03-22T22:35:02.894Z,0
2016-03-22T22:36:07.381Z,0
2016-03-22T22:37:07.509Z,0
2016-03-22T22:38:07.105Z,0
2016-03-22T22:39:07.123Z,0
2016-03-22T22:40:07.922Z,0
2016-03-22T22:41:07.317Z,0
2016-03-22T22:42:06.819Z,0
2016-03-22T22:43:07.056Z,0
2016-03-22T22:44:06.918Z,0
2016-03-22T22:45:07.311Z,0
2016-03-22T22:46:07.189Z,0
2016-03-22T22:47:05.691Z,0
2016-03-22T22:48:08.133Z,0
2016-03-22T22:49:07.494Z,0
2016-03-22T22:50:07.544Z,0
2016-03-22T22:51:21.749Z,0
2016-03-22T22:52:07.627Z,0
2016-03-22T22:53:06.989Z,0
2016-03-22T22:54:06.913Z,0
2016-03-22T22:55:08.181Z,0
2016-03-22T22:56:07.044Z,0
2016-03-22T22:57:06.781Z,0
2016-03-22T22:58:08.471Z,0
2016-03-22T22:59:06.412Z,0
2016-03-22T23:00:05.962Z,0
2016-03-22T23:01:06.589Z,0
2016-03-22T23:02:06.591Z,0
2016-03-22T23:03:06.735Z,0
2016-03-22T23:04:06.097Z,0
2016-03-22T23:05:06.411Z,0
2016-03-22T23:06:06.602Z,0
2016-03-22T23:07:06.901Z,0
2016-03-22T23:08:05.654Z,0
2016-03-22T23:09:06.563Z,0
2016-03-22T23:10:06.973Z,0
2016-03-22T23:11:06.350Z,0
2016-03-22T23:12:07.728Z,0
2016-03-22T23:13:07.121Z,0
2016-03-22T23:14:06.202Z,0
2016-03-22T23:15:05.986Z,0
2016-03-22T23:16:05.300Z,0
2016-03-22T23:17:06.132Z,0
2016-03-22T23:18:06.150Z,0
2016-03-22T23:19:05.558Z,0
2016-03-22T23:20:05.281Z,0
2016-03-22T23:21:06.096Z,0
2016-03-22T23:22:06.302Z,0
2016-03-22T23:23:06.757Z,0
2016-03-22T23:24:05.651Z,0
2016-03-22T23:25:10.482Z,0
2016-03-22T23:26:05.843Z,0
2016-03-22T23:27:06.987Z,0
2016-03-22T23:28:06.020Z,0
2016-03-22T23:29:06.835Z,0
2016-03-22T23:30:06.667Z,0
2016-03-22T23:31:08.107Z,0
2016-03-22T23:32:06.313Z,0
2016-03-22T23:33:05.456Z,0
2016-03-22T23:34:04.833Z,0
2016-03-22T23:35:06.259Z,0
2016-03-22T23:36:06.417Z,0
2016-03-22T23:37:06.139Z,0
2016-03-22T23:38:04.875Z,0
2016-03-22T23:39:05.487Z,0
2016-03-22T23:40:04.647Z,0
2016-03-22T23:41:06.947Z,0
2016-03-22T23:42:04.403Z,0
2016-03-22T23:43:05.467Z,0
2016-03-22T23:44:05.861Z,0
2016-03-22T23:45:05.598Z,0
2016-03-22T23:46:05.756Z,0
2016-03-22T23:47:04.681Z,0
2016-03-22T23:48:08.574Z,0
2016-03-22T23:49:00.936Z,0
2016-03-22T23:50:05.127Z,0
2016-03-22T23:51:01.816Z,0
2016-03-22T23:52:01.836Z,0
2016-03-22T23:53:03.041Z,0
2016-03-22T23:54:02.762Z,0
2016-03-22T23:55:00.859Z,0
2016-03-22T23:56:00.846Z,0
2016-03-22T23:57:01.552Z,0
2016-03-22T23:58:01.007Z,0
2016-03-22T23:59:01.166Z,0
